Gambrills, Maryland
Current Conditions -  °F | °C
As of 8:48 AM on Tuesday 21 Oct 2014 (Local Time) from KFME Reporting Station
Clear Clear  
Wind Chill: 43°   Ceiling: Unl
Heat Index: 43°   Visibility: 7mi
Dew Point: 43°   Wind: 0mph
Humidity: 100%   Direction: NA
Pressure: 29.9"   Gusts: NA
Location:  39.07°N, 76.66°W
Report Text: KFME 211248Z AUTO 00000KT 7SM CLR 06/06 A2990 RMK AO1
Loading
Personal Weather Stations






























Interactive Weather Map
Tropical Storm Tracking
New forecast layout! Learn more

10-Day Weather Forecast

Advertisements
Track Severe Weather on mobile